Time;durP1;ratioP1;P1;durP2;ratioP2;P2;SDS_P1;SDS_P2;PMS_P1;PMS_P2;Temp;Humidity;BMP_temperature;BMP_pressure;BME280_temperature;BME280_humidity;BME280_pressure;Samples;Min_cycle;Max_cycle;Signal;HPM_P1;HPM_P2
2021/01/26 00:01:13;;;;;;;16.63;3.50;;;;;;;;;;5079996;28;20233;-69
2021/01/26 00:03:38;;;;;;;16.50;4.73;;;;;;;;;;5078566;28;20189;-69
2021/01/26 00:06:03;;;;;;;15.47;5.20;;;;;;;;;;5085078;28;20209;-69
2021/01/26 00:08:28;;;;;;;16.80;5.40;;;;;;;;;;5078561;28;20242;-69
2021/01/26 00:10:53;;;;;;;11.70;4.53;;;;;;;;;;5079799;28;20201;-68
2021/01/26 00:13:19;;;;;;;13.20;4.87;;;;;;;;;;5078047;28;20201;-69
2021/01/26 00:15:45;;;;;;;12.23;3.87;;;;;;;;;;5079200;28;20191;-69
2021/01/26 00:18:10;;;;;;;13.87;4.63;;;;;;;;;;5079887;28;20187;-69
2021/01/26 00:20:35;;;;;;;25.10;5.10;;;;;;;;;;5079367;28;20549;-69
2021/01/26 00:23:01;;;;;;;11.83;4.57;;;;;;;;;;5075383;28;20208;-70
2021/01/26 00:25:27;;;;;;;10.37;3.83;;;;;;;;;;5090907;28;20176;-69
2021/01/26 00:27:52;;;;;;;13.93;4.27;;;;;;;;;;5084769;28;20180;-69
2021/01/26 00:30:22;;;;;;;20.80;5.53;;;;;;;;;;5077872;28;20184;-69
2021/01/26 00:32:47;;;;;;;15.50;4.03;;;;;;;;;;5083777;28;20763;-69
2021/01/26 00:35:13;;;;;;;11.83;3.23;;;;;;;;;;5076711;28;20263;-68
2021/01/26 00:37:38;;;;;;;11.57;3.00;;;;;;;;;;5080605;28;20208;-69
2021/01/26 00:40:05;;;;;;;15.00;3.03;;;;;;;;;;5085499;28;20168;-69
2021/01/26 00:42:30;;;;;;;13.27;3.30;;;;;;;;;;5078689;28;20168;-68
2021/01/26 00:44:55;;;;;;;10.53;2.50;;;;;;;;;;5078613;28;20652;-69
2021/01/26 00:47:20;;;;;;;6.43;1.90;;;;;;;;;;5080134;28;20182;-69
2021/01/26 00:49:46;;;;;;;14.07;2.40;;;;;;;;;;5091381;28;20180;-69
2021/01/26 00:52:11;;;;;;;7.67;2.30;;;;;;;;;;5089795;28;20673;-69
2021/01/26 00:54:36;;;;;;;10.87;2.73;;;;;;;;;;5087643;28;20575;-69
2021/01/26 00:57:02;;;;;;;14.00;2.73;;;;;;;;;;5085632;28;20606;-68
2021/01/26 00:59:27;;;;;;;11.67;2.27;;;;;;;;;;5087847;28;20185;-69
2021/01/26 01:01:54;;;;;;;10.77;3.07;;;;;;;;;;5078276;28;20499;-69
2021/01/26 01:04:19;;;;;;;11.77;3.23;;;;;;;;;;5087265;28;20195;-69
2021/01/26 01:06:44;;;;;;;10.50;2.47;;;;;;;;;;5078648;28;20177;-69
2021/01/26 01:09:09;;;;;;;8.53;2.23;;;;;;;;;;5084694;28;20199;-69
2021/01/26 01:11:35;;;;;;;9.00;2.30;;;;;;;;;;5083636;28;20184;-69
2021/01/26 01:14:00;;;;;;;5.97;2.67;;;;;;;;;;5087056;28;20684;-69
2021/01/26 01:16:25;;;;;;;7.70;1.33;;;;;;;;;;5084653;28;20204;-69
2021/01/26 01:18:50;;;;;;;6.07;1.70;;;;;;;;;;5081134;28;20699;-69
2021/01/26 01:21:15;;;;;;;9.93;1.87;;;;;;;;;;5081182;28;20168;-69
2021/01/26 01:23:40;;;;;;;10.30;2.30;;;;;;;;;;5082756;28;20208;-69
2021/01/26 01:26:06;;;;;;;23.55;4.75;;;;;;;;;;5083722;28;20184;-69
2021/01/26 01:28:31;;;;;;;12.77;1.70;;;;;;;;;;5086580;28;20185;-68
2021/01/26 01:30:56;;;;;;;8.27;1.67;;;;;;;;;;5080059;28;20575;-69
2021/01/26 01:33:22;;;;;;;6.70;2.23;;;;;;;;;;5081438;28;20608;-69
2021/01/26 01:35:48;;;;;;;8.63;1.97;;;;;;;;;;5078187;28;20185;-69
2021/01/26 01:38:13;;;;;;;11.70;2.93;;;;;;;;;;5083470;28;20200;-69
2021/01/26 01:40:38;;;;;;;11.03;2.40;;;;;;;;;;5081924;28;20255;-70
2021/01/26 01:43:03;;;;;;;15.57;2.63;;;;;;;;;;5072680;28;20196;-69
2021/01/26 01:45:29;;;;;;;17.50;2.83;;;;;;;;;;5075975;28;20657;-69
2021/01/26 01:47:56;;;;;;;6.70;2.20;;;;;;;;;;5086386;28;20210;-69
2021/01/26 01:50:26;;;;;;;8.70;1.40;;;;;;;;;;5087814;28;20181;-70
2021/01/26 01:52:58;;;;;;;5.90;1.17;;;;;;;;;;5083274;28;20204;-70
2021/01/26 01:55:25;;;;;;;4.57;1.67;;;;;;;;;;5085524;28;20271;-69
2021/01/26 01:57:53;;;;;;;1.77;0.80;;;;;;;;;;5091421;28;20264;-69
2021/01/26 02:00:20;;;;;;;4.57;0.90;;;;;;;;;;5087648;28;20336;-69
2021/01/26 02:02:51;;;;;;;2.87;1.00;;;;;;;;;;5081763;28;20172;-69
2021/01/26 02:05:16;;;;;;;3.03;0.70;;;;;;;;;;5086387;28;20275;-69
2021/01/26 02:07:42;;;;;;;3.57;0.67;;;;;;;;;;5094196;28;20178;-69
2021/01/26 02:10:07;;;;;;;4.50;0.77;;;;;;;;;;5086764;28;20218;-69
2021/01/26 02:12:32;;;;;;;2.63;0.80;;;;;;;;;;5082981;28;20235;-68
2021/01/26 02:14:58;;;;;;;5.40;1.10;;;;;;;;;;5085417;28;20684;-69
2021/01/26 02:17:23;;;;;;;4.27;1.17;;;;;;;;;;5077891;28;20211;-69
2021/01/26 02:19:57;;;;;;;6.40;0.90;;;;;;;;;;5080570;28;20232;-69
2021/01/26 02:22:23;;;;;;;3.30;0.77;;;;;;;;;;5088771;28;20223;-69
2021/01/26 02:25:07;;;;;;;1.77;0.73;;;;;;;;;;5087183;28;20715;-68
2021/01/26 02:27:51;;;;;;;3.60;0.70;;;;;;;;;;5086055;28;20641;-68
2021/01/26 02:30:22;;;;;;;6.47;1.20;;;;;;;;;;5082957;28;20425;-69
2021/01/26 02:33:03;;;;;;;5.13;1.23;;;;;;;;;;5087383;28;20237;-68
2021/01/26 02:35:47;;;;;;;8.77;1.77;;;;;;;;;;5079673;28;20203;-69
2021/01/26 02:38:18;;;;;;;6.77;1.83;;;;;;;;;;5087917;28;20259;-69
2021/01/26 02:40:43;;;;;;;8.23;1.53;;;;;;;;;;5087707;28;20679;-69
2021/01/26 02:43:27;;;;;;;10.27;1.70;;;;;;;;;;5078952;28;20685;-69
2021/01/26 02:45:52;;;;;;;5.57;2.50;;;;;;;;;;5086012;28;20185;-68
2021/01/26 02:48:34;;;;;;;6.30;1.95;;;;;;;;;;5083699;28;20183;-68
2021/01/26 02:51:02;;;;;;;10.43;2.27;;;;;;;;;;5091520;28;20176;-69
2021/01/26 02:53:31;;;;;;;5.77;1.73;;;;;;;;;;5081777;28;20204;-67
2021/01/26 02:56:00;;;;;;;8.17;2.17;;;;;;;;;;5083104;28;20214;-67
2021/01/26 02:58:30;;;;;;;8.37;2.23;;;;;;;;;;5086901;28;20173;-69
2021/01/26 03:00:58;;;;;;;12.60;2.27;;;;;;;;;;5083247;28;20180;-69
2021/01/26 03:03:27;;;;;;;5.97;1.33;;;;;;;;;;5087695;28;20568;-67
2021/01/26 03:05:57;;;;;;;7.80;1.80;;;;;;;;;;5088624;28;20266;-67
2021/01/26 03:08:33;;;;;;;5.70;1.70;;;;;;;;;;5081568;28;20172;-69
2021/01/26 03:11:03;;;;;;;5.57;2.20;;;;;;;;;;5084510;28;20165;-69
2021/01/26 03:13:30;;;;;;;6.53;1.80;;;;;;;;;;5084054;28;20196;-69
2021/01/26 03:16:01;;;;;;;8.80;1.87;;;;;;;;;;5082902;28;20741;-69
2021/01/26 03:18:32;;;;;;;7.20;2.67;;;;;;;;;;5087160;28;20716;-69
2021/01/26 03:20:59;;;;;;;8.33;1.70;;;;;;;;;;5090715;28;20534;-67
2021/01/26 03:23:33;;;;;;;6.53;1.40;;;;;;;;;;5075121;28;20205;-68
2021/01/26 03:25:59;;;;;;;8.03;2.20;;;;;;;;;;5075845;28;20181;-67
2021/01/26 03:28:26;;;;;;;8.97;2.67;;;;;;;;;;5085468;28;20181;-66
2021/01/26 03:30:53;;;;;;;7.87;2.10;;;;;;;;;;5077378;28;20649;-70
2021/01/26 03:33:20;;;;;;;10.43;2.50;;;;;;;;;;5080203;28;20188;-69
2021/01/26 03:35:46;;;;;;;12.43;2.73;;;;;;;;;;5085015;28;20173;-67
2021/01/26 03:38:14;;;;;;;13.70;2.87;;;;;;;;;;5075528;28;20170;-69
2021/01/26 03:40:39;;;;;;;11.93;2.30;;;;;;;;;;5079292;28;20203;-67
2021/01/26 03:43:04;;;;;;;10.20;2.87;;;;;;;;;;5081510;28;20227;-69
2021/01/26 03:45:29;;;;;;;10.83;3.13;;;;;;;;;;5081754;28;20169;-69
2021/01/26 03:48:00;;;;;;;12.37;2.00;;;;;;;;;;5081129;28;20566;-69
2021/01/26 03:50:40;;;;;;;14.77;4.33;;;;;;;;;;5087544;28;20176;-69
2021/01/26 03:53:08;;;;;;;9.03;2.80;;;;;;;;;;5085424;28;20203;-69
2021/01/26 03:55:33;;;;;;;8.17;1.80;;;;;;;;;;5079800;28;20172;-69
2021/01/26 03:58:06;;;;;;;9.00;2.08;;;;;;;;;;5090357;28;20202;-69
2021/01/26 04:00:43;;;;;;;8.57;2.50;;;;;;;;;;5081395;28;20653;-70
2021/01/26 04:03:08;;;;;;;12.60;2.10;;;;;;;;;;5083526;28;20684;-70
2021/01/26 04:05:39;;;;;;;5.70;1.92;;;;;;;;;;5085507;28;20175;-69
2021/01/26 04:08:24;;;;;;;5.87;2.00;;;;;;;;;;5074308;28;20169;-70
2021/01/26 04:11:02;;;;;;;3.90;1.30;;;;;;;;;;5082637;28;20187;-67
2021/01/26 04:13:31;;;;;;;3.47;1.40;;;;;;;;;;5079647;28;20244;-67
2021/01/26 04:15:58;;;;;;;10.17;1.50;;;;;;;;;;5087920;28;20238;-67
2021/01/26 04:18:32;;;;;;;7.00;1.80;;;;;;;;;;5081130;28;21462;-70
2021/01/26 04:20:57;;;;;;;6.40;1.40;;;;;;;;;;5078669;28;20186;-69
2021/01/26 04:23:23;;;;;;;2.53;1.17;;;;;;;;;;5080396;28;20279;-67
2021/01/26 04:25:49;;;;;;;7.60;1.20;;;;;;;;;;5089014;28;20253;-70
2021/01/26 04:28:16;;;;;;;13.23;1.53;;;;;;;;;;5089879;28;20576;-69
2021/01/26 04:30:42;;;;;;;5.80;1.10;;;;;;;;;;5087490;28;20202;-70
2021/01/26 04:33:08;;;;;;;10.40;2.17;;;;;;;;;;5079178;28;20197;-69
2021/01/26 04:35:34;;;;;;;3.77;1.57;;;;;;;;;;5081264;28;20176;-69
2021/01/26 04:37:59;;;;;;;8.27;1.80;;;;;;;;;;5085224;28;20198;-69
2021/01/26 04:40:26;;;;;;;7.47;2.57;;;;;;;;;;5079975;28;20172;-69
2021/01/26 04:42:55;;;;;;;6.00;1.40;;;;;;;;;;5083440;28;20204;-69
2021/01/26 04:45:26;;;;;;;6.40;2.03;;;;;;;;;;5078400;28;20703;-69
2021/01/26 04:48:11;;;;;;;10.90;2.47;;;;;;;;;;5077204;28;21205;-69
2021/01/26 04:50:44;;;;;;;8.97;1.47;;;;;;;;;;5078294;28;20180;-69
2021/01/26 04:53:10;;;;;;;14.87;1.43;;;;;;;;;;5082559;28;20192;-69
2021/01/26 04:55:43;;;;;;;6.17;1.23;;;;;;;;;;5081341;28;20207;-69
2021/01/26 04:58:20;;;;;;;9.20;1.30;;;;;;;;;;5092212;28;20215;-68
2021/01/26 05:00:45;;;;;;;7.93;1.27;;;;;;;;;;5081289;28;20263;-69
2021/01/26 05:03:20;;;;;;;6.13;1.23;;;;;;;;;;5076146;28;20279;-67
2021/01/26 05:05:46;;;;;;;11.43;2.13;;;;;;;;;;5083489;28;20212;-69
2021/01/26 05:08:14;;;;;;;5.17;1.20;;;;;;;;;;5080339;28;20165;-69
2021/01/26 05:10:41;;;;;;;7.33;1.37;;;;;;;;;;5080906;28;20590;-69
2021/01/26 05:13:17;;;;;;;9.43;1.03;;;;;;;;;;5083832;28;20627;-68
2021/01/26 05:15:43;;;;;;;6.83;1.47;;;;;;;;;;5086558;28;20734;-69
2021/01/26 05:18:22;;;;;;;7.47;1.90;;;;;;;;;;5084465;28;20184;-69
2021/01/26 05:20:51;;;;;;;8.30;1.53;;;;;;;;;;5078146;28;20666;-69
2021/01/26 05:23:18;;;;;;;3.57;1.43;;;;;;;;;;5078606;28;20201;-68
2021/01/26 05:25:44;;;;;;;6.97;1.57;;;;;;;;;;5086473;28;20172;-69
2021/01/26 05:28:09;;;;;;;9.37;1.73;;;;;;;;;;5087125;28;20171;-69
2021/01/26 05:30:37;;;;;;;11.40;1.67;;;;;;;;;;5082221;28;20229;-68
2021/01/26 05:33:04;;;;;;;8.47;1.33;;;;;;;;;;5078660;28;20196;-69
2021/01/26 05:35:30;;;;;;;12.27;2.07;;;;;;;;;;5087228;28;20618;-69
2021/01/26 05:37:55;;;;;;;6.63;1.50;;;;;;;;;;5081907;28;20275;-69
2021/01/26 05:40:26;;;;;;;13.47;2.37;;;;;;;;;;5086326;28;20552;-69
2021/01/26 05:42:55;;;;;;;9.07;1.60;;;;;;;;;;5085377;28;20250;-69
2021/01/26 05:45:31;;;;;;;10.47;1.63;;;;;;;;;;5072869;28;20257;-69
2021/01/26 05:48:07;;;;;;;12.13;1.80;;;;;;;;;;5084666;28;20720;-69
2021/01/26 05:50:33;;;;;;;10.30;3.07;;;;;;;;;;5083729;28;20176;-69
2021/01/26 05:53:04;;;;;;;10.17;1.90;;;;;;;;;;5080568;28;20233;-68
2021/01/26 05:55:30;;;;;;;11.53;1.70;;;;;;;;;;5083719;28;20181;-69
2021/01/26 05:58:05;;;;;;;11.43;1.37;;;;;;;;;;5090277;28;20236;-69
2021/01/26 06:00:30;;;;;;;11.17;1.70;;;;;;;;;;5080533;28;20179;-69
2021/01/26 06:03:14;;;;;;;7.30;1.90;;;;;;;;;;5072265;28;20220;-68
2021/01/26 06:05:40;;;;;;;7.83;1.60;;;;;;;;;;5078239;28;20562;-68
2021/01/26 06:08:14;;;;;;;6.30;1.80;;;;;;;;;;5081455;28;20548;-68
2021/01/26 06:10:42;;;;;;;8.40;2.00;;;;;;;;;;5075099;28;20225;-69
2021/01/26 06:13:08;;;;;;;13.33;2.10;;;;;;;;;;5080668;28;20258;-69
2021/01/26 06:15:35;;;;;;;5.97;2.17;;;;;;;;;;5071154;28;20281;-68
2021/01/26 06:18:12;;;;;;;4.30;1.93;;;;;;;;;;5079519;28;20239;-69
2021/01/26 06:20:38;;;;;;;4.80;1.47;;;;;;;;;;5075411;28;20173;-69
2021/01/26 06:23:17;;;;;;;8.30;1.83;;;;;;;;;;5079238;28;20224;-68
2021/01/26 06:25:45;;;;;;;10.67;2.17;;;;;;;;;;5075788;28;22216;-68
2021/01/26 06:28:24;;;;;;;7.73;2.33;;;;;;;;;;5077119;28;20233;-68
2021/01/26 06:30:54;;;;;;;9.23;1.57;;;;;;;;;;5075053;28;20183;-69
2021/01/26 06:33:34;;;;;;;6.00;1.57;;;;;;;;;;5077259;28;20184;-68
2021/01/26 06:36:04;;;;;;;10.50;2.00;;;;;;;;;;5076754;28;20208;-68
2021/01/26 06:38:39;;;;;;;7.90;2.37;;;;;;;;;;5076451;28;20603;-69
2021/01/26 06:41:07;;;;;;;7.27;1.53;;;;;;;;;;5078440;28;20222;-68
2021/01/26 06:43:35;;;;;;;11.73;1.87;;;;;;;;;;5075487;28;20200;-68
2021/01/26 06:46:06;;;;;;;9.00;1.40;;;;;;;;;;5074575;28;20263;-68
2021/01/26 06:48:48;;;;;;;3.17;1.20;;;;;;;;;;5076588;28;20180;-68
2021/01/26 06:51:46;;;;;;;10.20;2.77;;;;;;;;;;5071837;28;20184;-69
2021/01/26 06:54:19;;;;;;;5.87;1.60;;;;;;;;;;5064063;28;20208;-68
2021/01/26 06:56:53;;;;;;;8.33;1.63;;;;;;;;;;5077279;28;20398;-69
2021/01/26 06:59:33;;;;;;;6.17;1.60;;;;;;;;;;5076808;28;20171;-68
2021/01/26 07:02:10;;;;;;;12.53;2.03;;;;;;;;;;5081765;28;20181;-68
2021/01/26 07:04:54;;;;;;;12.37;1.43;;;;;;;;;;5077225;28;20195;-68
2021/01/26 07:07:38;;;;;;;10.63;1.23;;;;;;;;;;5078113;28;20701;-68
2021/01/26 07:10:22;;;;;;;6.80;1.40;;;;;;;;;;5085337;28;20177;-68
2021/01/26 07:13:00;;;;;;;8.27;2.50;;;;;;;;;;5081038;28;20708;-68
2021/01/26 07:15:25;;;;;;;6.73;2.23;;;;;;;;;;5075934;28;20181;-69
2021/01/26 07:17:53;;;;;;;6.93;2.15;;;;;;;;;;5084632;28;20215;-69
2021/01/26 07:20:27;;;;;;;7.03;1.50;;;;;;;;;;5078995;28;20711;-69
2021/01/26 07:23:03;;;;;;;9.83;1.50;;;;;;;;;;5074093;28;20192;-69
2021/01/26 07:25:34;;;;;;;4.27;1.53;;;;;;;;;;5084999;28;20247;-71
2021/01/26 07:28:32;;;;;;;8.40;1.40;;;;;;;;;;5081466;28;20173;-70
2021/01/26 07:31:00;;;;;;;7.50;1.53;;;;;;;;;;5088320;28;20242;-71
2021/01/26 07:33:32;;;;;;;5.13;1.60;;;;;;;;;;5082145;28;20222;-69
2021/01/26 07:36:16;;;;;;;4.40;1.27;;;;;;;;;;5089841;28;20486;-69
2021/01/26 07:39:00;;;;;;;8.43;1.50;;;;;;;;;;5090935;28;20211;-69
2021/01/26 07:41:28;;;;;;;6.00;1.30;;;;;;;;;;5079384;28;20255;-69
2021/01/26 07:44:00;;;;;;;5.40;1.33;;;;;;;;;;5073265;28;20669;-69
2021/01/26 07:46:29;;;;;;;6.90;1.77;;;;;;;;;;5075547;28;20596;-69
2021/01/26 07:49:09;;;;;;;4.83;1.80;;;;;;;;;;5079774;28;20212;-69
2021/01/26 07:51:36;;;;;;;6.63;2.07;;;;;;;;;;5083431;28;20259;-69
2021/01/26 07:54:01;;;;;;;7.30;1.30;;;;;;;;;;5085868;28;20191;-69
2021/01/26 07:56:37;;;;;;;10.80;1.55;;;;;;;;;;5077551;28;20222;-68
2021/01/26 07:59:08;;;;;;;7.70;1.60;;;;;;;;;;5072103;28;20194;-69
2021/01/26 08:01:39;;;;;;;4.77;1.23;;;;;;;;;;5072252;28;20204;-68
2021/01/26 08:04:04;;;;;;;8.53;2.00;;;;;;;;;;5078322;28;20708;-69
2021/01/26 08:06:36;;;;;;;11.23;1.83;;;;;;;;;;5074385;28;20176;-68
2021/01/26 08:09:02;;;;;;;6.93;1.67;;;;;;;;;;5086824;28;20237;-69
2021/01/26 08:11:27;;;;;;;4.57;1.33;;;;;;;;;;5080530;28;20180;-69
2021/01/26 08:13:55;;;;;;;4.70;1.57;;;;;;;;;;5079100;28;20677;-69
2021/01/26 08:16:21;;;;;;;9.83;1.83;;;;;;;;;;5077561;28;20212;-69
2021/01/26 08:18:47;;;;;;;8.37;1.97;;;;;;;;;;5077064;28;20179;-69
2021/01/26 08:21:31;;;;;;;9.83;1.80;;;;;;;;;;5080392;28;20619;-69
2021/01/26 08:24:10;;;;;;;4.90;1.33;;;;;;;;;;5077323;28;20689;-69
2021/01/26 08:26:35;;;;;;;11.43;2.70;;;;;;;;;;5077640;28;20168;-68
2021/01/26 08:29:01;;;;;;;8.00;2.67;;;;;;;;;;5083324;28;20287;-69
2021/01/26 08:31:35;;;;;;;14.10;1.97;;;;;;;;;;5077295;28;20175;-69
2021/01/26 08:34:18;;;;;;;11.27;2.60;;;;;;;;;;5085597;28;20196;-69
2021/01/26 08:36:44;;;;;;;10.97;2.37;;;;;;;;;;5080395;28;20218;-69
2021/01/26 08:39:15;;;;;;;7.30;1.93;;;;;;;;;;5080545;28;20177;-69
2021/01/26 08:41:45;;;;;;;7.20;2.27;;;;;;;;;;5070485;28;20188;-69
2021/01/26 08:44:19;;;;;;;4.90;1.67;;;;;;;;;;5070584;28;20227;-69
2021/01/26 08:46:46;;;;;;;7.87;2.10;;;;;;;;;;5070696;28;20661;-69
2021/01/26 08:49:20;;;;;;;8.40;1.70;;;;;;;;;;5075947;28;20673;-69
2021/01/26 08:51:45;;;;;;;6.77;2.17;;;;;;;;;;5074783;28;20177;-69
2021/01/26 08:54:10;;;;;;;7.23;1.63;;;;;;;;;;5076434;28;20273;-69
2021/01/26 08:56:37;;;;;;;8.87;1.93;;;;;;;;;;5079072;28;20188;-70
2021/01/26 08:59:06;;;;;;;9.57;2.17;;;;;;;;;;5075165;28;20243;-70
2021/01/26 09:01:34;;;;;;;9.70;2.00;;;;;;;;;;5077200;28;20194;-70
2021/01/26 09:04:20;;;;;;;7.33;2.33;;;;;;;;;;5080612;28;20266;-69
2021/01/26 09:06:46;;;;;;;6.07;1.40;;;;;;;;;;5082111;28;20666;-69
2021/01/26 09:09:11;;;;;;;4.90;1.67;;;;;;;;;;5077090;28;20303;-68
2021/01/26 09:11:45;;;;;;;9.38;3.15;;;;;;;;;;5079731;28;20641;-69
2021/01/26 09:14:30;;;;;;;12.27;2.80;;;;;;;;;;5077461;28;20223;-68
2021/01/26 09:16:57;;;;;;;9.47;1.90;;;;;;;;;;5080598;28;20203;-70
2021/01/26 09:19:25;;;;;;;4.83;1.43;;;;;;;;;;5078595;28;20541;-68
2021/01/26 09:21:50;;;;;;;6.30;1.83;;;;;;;;;;5081644;28;20184;-70
2021/01/26 09:24:22;;;;;;;5.27;1.67;;;;;;;;;;5079864;28;20188;-69
2021/01/26 09:26:47;;;;;;;7.20;1.90;;;;;;;;;;5075862;28;20188;-70
2021/01/26 09:29:26;;;;;;;6.00;1.63;;;;;;;;;;5077680;28;20174;-69
2021/01/26 09:31:51;;;;;;;12.43;1.97;;;;;;;;;;5076469;28;20176;-70
2021/01/26 09:34:22;;;;;;;9.33;1.43;;;;;;;;;;5080912;28;20684;-69
2021/01/26 09:36:47;;;;;;;12.97;1.93;;;;;;;;;;5086677;28;20618;-69
2021/01/26 09:39:17;;;;;;;6.83;2.30;;;;;;;;;;5082153;28;20206;-69
2021/01/26 09:41:42;;;;;;;10.10;1.67;;;;;;;;;;5082435;28;20177;-68
2021/01/26 09:44:09;;;;;;;11.83;2.73;;;;;;;;;;5082334;28;20226;-69
2021/01/26 09:46:37;;;;;;;7.13;2.40;;;;;;;;;;5082629;28;20177;-68
2021/01/26 09:49:17;;;;;;;9.50;2.13;;;;;;;;;;5075496;28;20277;-69
2021/01/26 09:52:12;;;;;;;9.37;2.70;;;;;;;;;;5085588;28;20598;-68
2021/01/26 09:54:39;;;;;;;4.63;2.73;;;;;;;;;;5063242;28;20212;-68
2021/01/26 09:57:05;;;;;;;9.43;2.00;;;;;;;;;;5076931;28;20576;-69
2021/01/26 09:59:32;;;;;;;7.70;2.33;;;;;;;;;;5088632;28;20206;-69
2021/01/26 10:01:58;;;;;;;7.17;2.30;;;;;;;;;;5085759;28;20196;-69
2021/01/26 10:04:23;;;;;;;8.43;2.17;;;;;;;;;;5082088;28;20227;-69
2021/01/26 10:06:49;;;;;;;11.40;2.63;;;;;;;;;;5078624;28;20907;-68
2021/01/26 10:09:25;;;;;;;15.20;3.83;;;;;;;;;;5079399;28;20189;-69
2021/01/26 10:11:50;;;;;;;9.10;3.67;;;;;;;;;;5084465;28;20731;-69
2021/01/26 10:14:20;;;;;;;9.40;2.27;;;;;;;;;;5086367;28;20204;-69
2021/01/26 10:16:46;;;;;;;7.37;2.40;;;;;;;;;;5078676;28;20204;-69
2021/01/26 10:19:20;;;;;;;9.40;1.70;;;;;;;;;;5083726;28;20253;-68
2021/01/26 10:21:45;;;;;;;9.07;1.50;;;;;;;;;;5086658;28;20184;-69
2021/01/26 10:24:22;;;;;;;10.60;1.70;;;;;;;;;;5087352;28;20214;-69
2021/01/26 10:26:48;;;;;;;5.50;1.30;;;;;;;;;;5088702;28;20184;-68
2021/01/26 10:29:16;;;;;;;8.30;1.83;;;;;;;;;;5088228;28;20559;-69
2021/01/26 10:31:49;;;;;;;5.43;1.33;;;;;;;;;;5090198;28;20537;-69
2021/01/26 10:34:29;;;;;;;2.97;1.00;;;;;;;;;;5084024;28;20732;-69
2021/01/26 10:36:55;;;;;;;3.43;1.37;;;;;;;;;;5086620;28;20700;-69
2021/01/26 10:39:21;;;;;;;7.93;2.30;;;;;;;;;;5079178;28;20184;-69
2021/01/26 10:41:47;;;;;;;2.80;0.90;;;;;;;;;;5075839;28;20168;-69
2021/01/26 10:44:13;;;;;;;5.67;1.47;;;;;;;;;;5074806;28;20199;-69
2021/01/26 10:46:40;;;;;;;1.90;0.83;;;;;;;;;;5088904;28;20665;-69
2021/01/26 10:49:12;;;;;;;2.67;0.70;;;;;;;;;;5078361;28;20341;-69
2021/01/26 10:51:39;;;;;;;3.70;0.97;;;;;;;;;;5072651;28;20304;-69
2021/01/26 10:54:07;;;;;;;3.73;0.77;;;;;;;;;;5072370;28;20690;-69
2021/01/26 10:56:33;;;;;;;5.70;0.90;;;;;;;;;;5079464;28;20224;-69
2021/01/26 10:58:58;;;;;;;2.97;0.63;;;;;;;;;;5081875;28;20230;-69
2021/01/26 11:01:24;;;;;;;2.37;0.50;;;;;;;;;;5087228;28;20179;-69
2021/01/26 11:03:50;;;;;;;1.63;0.60;;;;;;;;;;5077346;28;20651;-69
2021/01/26 11:06:15;;;;;;;5.73;1.00;;;;;;;;;;5088289;28;20215;-69
2021/01/26 11:08:43;;;;;;;2.83;0.70;;;;;;;;;;5083055;28;20177;-69
2021/01/26 11:11:10;;;;;;;3.60;0.90;;;;;;;;;;5081305;28;20173;-68
2021/01/26 11:13:35;;;;;;;1.23;0.50;;;;;;;;;;5074860;28;20216;-69
2021/01/26 11:16:00;;;;;;;2.53;0.90;;;;;;;;;;5074152;28;20196;-69
2021/01/26 11:18:25;;;;;;;2.27;0.70;;;;;;;;;;5081839;28;20173;-69
2021/01/26 11:20:50;;;;;;;1.00;0.50;;;;;;;;;;5085996;28;20173;-69
2021/01/26 11:23:16;;;;;;;2.43;0.70;;;;;;;;;;5078785;28;20245;-69
2021/01/26 11:25:41;;;;;;;2.10;0.73;;;;;;;;;;5081446;28;20685;-69
2021/01/26 11:28:06;;;;;;;7.37;1.10;;;;;;;;;;5083694;28;20176;-69
2021/01/26 11:30:32;;;;;;;3.17;1.00;;;;;;;;;;5078435;28;20557;-69
2021/01/26 11:32:57;;;;;;;1.77;0.67;;;;;;;;;;5082231;28;20200;-69
2021/01/26 11:35:24;;;;;;;5.10;0.80;;;;;;;;;;5078811;28;20267;-68
2021/01/26 11:37:49;;;;;;;1.77;0.70;;;;;;;;;;5078523;28;20287;-69
2021/01/26 11:40:15;;;;;;;1.37;0.83;;;;;;;;;;5086640;28;20280;-69
2021/01/26 11:42:40;;;;;;;3.67;1.00;;;;;;;;;;5084717;28;20229;-69
2021/01/26 11:45:07;;;;;;;2.17;1.30;;;;;;;;;;5073789;28;20234;-69
2021/01/26 11:47:33;;;;;;;1.47;0.80;;;;;;;;;;5086802;28;20176;-68
2021/01/26 11:49:59;;;;;;;2.03;1.00;;;;;;;;;;5088523;28;20646;-69
2021/01/26 11:52:24;;;;;;;3.30;0.87;;;;;;;;;;5084711;28;20186;-70
2021/01/26 11:54:49;;;;;;;2.70;0.88;;;;;;;;;;5078890;28;20238;-69
2021/01/26 11:57:14;;;;;;;2.17;0.70;;;;;;;;;;5085919;28;20723;-69
2021/01/26 11:59:41;;;;;;;2.57;0.80;;;;;;;;;;5083177;28;20176;-69
2021/01/26 12:02:06;;;;;;;3.83;1.10;;;;;;;;;;5089327;28;20185;-69
2021/01/26 12:04:31;;;;;;;2.63;0.97;;;;;;;;;;5082534;28;20288;-69
2021/01/26 12:06:56;;;;;;;2.23;1.03;;;;;;;;;;5086343;28;20184;-69
2021/01/26 12:09:22;;;;;;;2.70;1.10;;;;;;;;;;5088406;28;20263;-69
2021/01/26 12:11:47;;;;;;;6.07;1.40;;;;;;;;;;5078355;28;20180;-68
2021/01/26 12:14:12;;;;;;;2.87;1.10;;;;;;;;;;5080942;28;20676;-69
2021/01/26 12:16:37;;;;;;;2.87;1.30;;;;;;;;;;5074126;28;20272;-69
2021/01/26 12:19:03;;;;;;;4.10;1.20;;;;;;;;;;5078325;28;20192;-69
2021/01/26 12:21:28;;;;;;;7.23;2.07;;;;;;;;;;5080946;28;20180;-68
2021/01/26 12:23:53;;;;;;;3.50;1.23;;;;;;;;;;5085760;28;20195;-69
2021/01/26 12:26:18;;;;;;;4.77;1.30;;;;;;;;;;5081465;28;20657;-69
2021/01/26 12:28:44;;;;;;;2.00;1.43;;;;;;;;;;5081630;28;20646;-69
2021/01/26 12:31:09;;;;;;;6.97;1.93;;;;;;;;;;5079918;28;20189;-68
2021/01/26 12:33:34;;;;;;;5.30;1.70;;;;;;;;;;5080556;28;20204;-67
2021/01/26 12:35:59;;;;;;;5.97;1.97;;;;;;;;;;5080998;28;20517;-69
2021/01/26 12:38:25;;;;;;;4.13;2.00;;;;;;;;;;5076842;28;20179;-69
2021/01/26 12:40:50;;;;;;;9.93;2.60;;;;;;;;;;5077072;28;20578;-69
2021/01/26 12:43:15;;;;;;;7.17;2.30;;;;;;;;;;5079154;28;20697;-70
2021/01/26 12:45:40;;;;;;;7.67;2.13;;;;;;;;;;5086242;28;20180;-70
2021/01/26 12:48:06;;;;;;;4.70;2.20;;;;;;;;;;5075802;28;20196;-70
2021/01/26 12:50:32;;;;;;;3.33;1.80;;;;;;;;;;5080773;28;20184;-69
2021/01/26 12:52:58;;;;;;;6.60;2.27;;;;;;;;;;5090465;28;20200;-69
2021/01/26 12:55:23;;;;;;;5.97;2.27;;;;;;;;;;5075380;28;20210;-70
2021/01/26 12:57:48;;;;;;;6.97;2.17;;;;;;;;;;5086302;28;20200;-70
2021/01/26 13:00:16;;;;;;;8.13;2.87;;;;;;;;;;5085958;28;20183;-70
2021/01/26 13:02:41;;;;;;;7.03;3.03;;;;;;;;;;5080564;28;20188;-68
2021/01/26 13:05:07;;;;;;;6.30;3.67;;;;;;;;;;5087507;28;20556;-68
2021/01/26 13:07:32;;;;;;;7.10;2.53;;;;;;;;;;5077079;28;20276;-68
2021/01/26 13:09:58;;;;;;;6.60;1.87;;;;;;;;;;5088862;28;20208;-67
2021/01/26 13:12:23;;;;;;;4.90;1.90;;;;;;;;;;5078197;28;20709;-68
2021/01/26 13:14:48;;;;;;;8.80;2.67;;;;;;;;;;5077050;28;20409;-68
2021/01/26 13:17:13;;;;;;;7.43;2.57;;;;;;;;;;5085364;28;20199;-68
2021/01/26 13:19:39;;;;;;;8.17;2.90;;;;;;;;;;5072657;28;20654;-68
2021/01/26 13:22:04;;;;;;;7.67;2.47;;;;;;;;;;5080802;28;20268;-67
2021/01/26 13:24:30;;;;;;;10.37;3.73;;;;;;;;;;5078657;28;20203;-68
2021/01/26 13:26:55;;;;;;;6.57;2.20;;;;;;;;;;5074192;28;20177;-68
2021/01/26 13:29:20;;;;;;;5.87;2.73;;;;;;;;;;5079269;28;20905;-66
2021/01/26 13:31:45;;;;;;;6.27;2.70;;;;;;;;;;5077155;28;20223;-68
2021/01/26 13:34:10;;;;;;;7.67;2.50;;;;;;;;;;5084257;28;20203;-69
2021/01/26 13:36:36;;;;;;;9.33;2.23;;;;;;;;;;5084406;28;20200;-68
2021/01/26 13:39:01;;;;;;;5.83;1.93;;;;;;;;;;5087931;28;20182;-67
2021/01/26 13:41:27;;;;;;;9.10;2.70;;;;;;;;;;5084307;28;20175;-68
2021/01/26 13:43:52;;;;;;;3.00;1.63;;;;;;;;;;5079764;28;20224;-68
2021/01/26 13:46:17;;;;;;;5.63;1.87;;;;;;;;;;5083697;28;20234;-68
2021/01/26 13:48:42;;;;;;;7.17;1.23;;;;;;;;;;5082215;28;20187;-68
2021/01/26 13:51:08;;;;;;;4.73;1.57;;;;;;;;;;5080164;28;20198;-68
2021/01/26 13:53:33;;;;;;;3.80;1.40;;;;;;;;;;5080725;28;20712;-69
2021/01/26 13:55:58;;;;;;;3.87;1.70;;;;;;;;;;5077689;28;20172;-68
2021/01/26 13:58:23;;;;;;;4.03;1.47;;;;;;;;;;5085869;28;20204;-68
2021/01/26 14:00:49;;;;;;;13.73;1.37;;;;;;;;;;5080806;28;20186;-68
2021/01/26 14:03:14;;;;;;;6.77;2.17;;;;;;;;;;5072880;28;20192;-68
2021/01/26 14:05:39;;;;;;;2.30;1.20;;;;;;;;;;5083886;28;20263;-67
2021/01/26 14:08:04;;;;;;;4.93;1.40;;;;;;;;;;5076266;28;20649;-68
2021/01/26 14:10:34;;;;;;;6.63;1.30;;;;;;;;;;5081353;28;20230;-68
2021/01/26 14:13:01;;;;;;;6.70;2.23;;;;;;;;;;5082317;28;20291;-67
2021/01/26 14:15:27;;;;;;;3.23;1.80;;;;;;;;;;5071725;28;20528;-68
2021/01/26 14:17:52;;;;;;;2.70;1.50;;;;;;;;;;5077837;28;20213;-68
2021/01/26 14:20:18;;;;;;;7.63;3.60;;;;;;;;;;5082896;28;20605;-68
2021/01/26 14:22:43;;;;;;;3.47;1.90;;;;;;;;;;5086336;28;20183;-68
2021/01/26 14:25:09;;;;;;;8.40;1.43;;;;;;;;;;5084049;28;20192;-68
2021/01/26 14:27:34;;;;;;;6.10;1.40;;;;;;;;;;5085789;28;20212;-68
2021/01/26 14:29:59;;;;;;;5.53;1.77;;;;;;;;;;5081439;28;20208;-68
2021/01/26 14:32:24;;;;;;;5.33;1.77;;;;;;;;;;5082389;28;20249;-68
2021/01/26 14:34:50;;;;;;;4.97;1.87;;;;;;;;;;5084570;28;20463;-68
2021/01/26 14:37:15;;;;;;;4.80;1.47;;;;;;;;;;5077656;28;20960;-68
2021/01/26 14:39:42;;;;;;;5.00;1.70;;;;;;;;;;5084482;28;20180;-68
2021/01/26 14:42:07;;;;;;;6.10;1.53;;;;;;;;;;5079996;28;20200;-68
2021/01/26 14:44:33;;;;;;;2.57;1.40;;;;;;;;;;5086665;28;20269;-68
2021/01/26 14:46:58;;;;;;;5.27;2.60;;;;;;;;;;5085106;28;20184;-68
2021/01/26 14:49:24;;;;;;;5.93;1.50;;;;;;;;;;5081044;28;20248;-68